sensor_id;sensor_type;location;lat;lon;timestamp;pressure;altitude;pressure_sealevel;temperature;humidity
72336;BME280;65062;48.446;8.834;2023-06-10T00:02:42;97147.56;;;12.94;83.05
72336;BME280;65062;48.446;8.834;2023-06-10T00:05:44;97142.34;;;12.87;83.77
72336;BME280;65062;48.446;8.834;2023-06-10T00:08:44;97140.47;;;13.07;82.30
72336;BME280;65062;48.446;8.834;2023-06-10T00:11:47;97142.91;;;13.02;82.05
72336;BME280;65062;48.446;8.834;2023-06-10T00:14:47;97144.91;;;13.07;82.93
72336;BME280;65062;48.446;8.834;2023-06-10T00:17:50;97145.34;;;13.04;82.78
72336;BME280;65062;48.446;8.834;2023-06-10T00:20:53;97143.16;;;12.81;83.39
72336;BME280;65062;48.446;8.834;2023-06-10T00:23:55;97144.03;;;12.68;83.73
72336;BME280;65062;48.446;8.834;2023-06-10T00:26:55;97150.09;;;12.69;83.74
72336;BME280;65062;48.446;8.834;2023-06-10T00:29:56;97152.31;;;12.59;84.08
72336;BME280;65062;48.446;8.834;2023-06-10T00:32:56;97147.69;;;12.68;83.81
72336;BME280;65062;48.446;8.834;2023-06-10T00:35:56;97151.09;;;12.68;83.81
72336;BME280;65062;48.446;8.834;2023-06-10T00:38:57;97150.50;;;12.59;84.53
72336;BME280;65062;48.446;8.834;2023-06-10T00:41:57;97140.22;;;12.58;84.83
72336;BME280;65062;48.446;8.834;2023-06-10T00:44:58;97140.88;;;12.47;84.59
72336;BME280;65062;48.446;8.834;2023-06-10T00:47:59;97147.91;;;12.40;86.00
72336;BME280;65062;48.446;8.834;2023-06-10T00:51:00;97140.84;;;12.53;85.65
72336;BME280;65062;48.446;8.834;2023-06-10T00:54:00;97134.63;;;12.35;85.39
72336;BME280;65062;48.446;8.834;2023-06-10T00:57:01;97131.81;;;12.23;85.73
72336;BME280;65062;48.446;8.834;2023-06-10T01:00:02;97133.81;;;12.28;84.88
72336;BME280;65062;48.446;8.834;2023-06-10T01:03:03;97130.00;;;12.24;86.16
72336;BME280;65062;48.446;8.834;2023-06-10T01:06:24;97129.19;;;12.30;85.15
72336;BME280;65062;48.446;8.834;2023-06-10T01:09:45;97128.41;;;12.10;86.28
72336;BME280;65062;48.446;8.834;2023-06-10T01:15:59;97136.84;;;12.12;85.78
72336;BME280;65062;48.446;8.834;2023-06-10T01:19:00;97132.84;;;12.03;86.42
72336;BME280;65062;48.446;8.834;2023-06-10T01:22:00;97133.84;;;12.02;87.65
72336;BME280;65062;48.446;8.834;2023-06-10T01:25:00;97135.69;;;12.01;86.49
72336;BME280;65062;48.446;8.834;2023-06-10T01:28:14;97133.44;;;11.92;87.04
72336;BME280;65062;48.446;8.834;2023-06-10T01:31:30;97136.06;;;11.92;87.29
72336;BME280;65062;48.446;8.834;2023-06-10T01:34:35;97137.47;;;11.94;87.72
72336;BME280;65062;48.446;8.834;2023-06-10T01:37:39;97138.09;;;11.83;86.44
72336;BME280;65062;48.446;8.834;2023-06-10T01:40:40;97141.09;;;11.74;87.81
72336;BME280;65062;48.446;8.834;2023-06-10T01:43:43;97140.69;;;11.64;88.85
72336;BME280;65062;48.446;8.834;2023-06-10T01:46:44;97145.34;;;11.81;88.14
72336;BME280;65062;48.446;8.834;2023-06-10T01:49:44;97151.00;;;11.72;88.69
72336;BME280;65062;48.446;8.834;2023-06-10T01:52:45;97151.22;;;11.70;89.31
72336;BME280;65062;48.446;8.834;2023-06-10T01:55:45;97144.13;;;11.64;88.40
72336;BME280;65062;48.446;8.834;2023-06-10T01:58:46;97145.72;;;11.59;87.99
72336;BME280;65062;48.446;8.834;2023-06-10T02:01:47;97146.31;;;11.54;90.26
72336;BME280;65062;48.446;8.834;2023-06-10T02:04:47;97149.72;;;11.55;89.90
72336;BME280;65062;48.446;8.834;2023-06-10T02:07:47;97148.28;;;11.46;90.00
72336;BME280;65062;48.446;8.834;2023-06-10T02:10:48;97155.16;;;11.47;88.92
72336;BME280;65062;48.446;8.834;2023-06-10T02:13:48;97151.72;;;11.46;88.25
72336;BME280;65062;48.446;8.834;2023-06-10T02:16:48;97155.38;;;11.45;90.30
72336;BME280;65062;48.446;8.834;2023-06-10T02:19:49;97158.97;;;11.44;88.78
72336;BME280;65062;48.446;8.834;2023-06-10T02:22:52;97160.19;;;11.35;90.78
72336;BME280;65062;48.446;8.834;2023-06-10T02:25:52;97164.22;;;11.44;89.11
72336;BME280;65062;48.446;8.834;2023-06-10T02:28:53;97172.91;;;11.45;88.85
72336;BME280;65062;48.446;8.834;2023-06-10T02:31:53;97164.44;;;11.49;89.87
72336;BME280;65062;48.446;8.834;2023-06-10T02:34:54;97170.25;;;11.32;89.09
72336;BME280;65062;48.446;8.834;2023-06-10T02:37:54;97173.22;;;11.22;90.69
72336;BME280;65062;48.446;8.834;2023-06-10T02:40:54;97170.22;;;11.19;91.22
72336;BME280;65062;48.446;8.834;2023-06-10T02:43:55;97173.25;;;11.29;89.60
72336;BME280;65062;48.446;8.834;2023-06-10T02:46:55;97176.44;;;11.18;90.25
72336;BME280;65062;48.446;8.834;2023-06-10T02:49:55;97173.81;;;11.11;90.52
72336;BME280;65062;48.446;8.834;2023-06-10T02:52:56;97175.03;;;11.15;90.42
72336;BME280;65062;48.446;8.834;2023-06-10T02:55:56;97185.34;;;11.30;89.37
72336;BME280;65062;48.446;8.834;2023-06-10T02:58:57;97174.81;;;11.17;90.58
72336;BME280;65062;48.446;8.834;2023-06-10T03:01:58;97179.88;;;11.12;90.61
72336;BME280;65062;48.446;8.834;2023-06-10T03:04:59;97179.25;;;11.10;89.57
72336;BME280;65062;48.446;8.834;2023-06-10T03:07:59;97174.81;;;11.17;89.45
72336;BME280;65062;48.446;8.834;2023-06-10T03:11:00;97182.84;;;11.02;91.11
72336;BME280;65062;48.446;8.834;2023-06-10T03:14:00;97180.66;;;11.06;89.35
72336;BME280;65062;48.446;8.834;2023-06-10T03:17:00;97184.28;;;11.11;90.82
72336;BME280;65062;48.446;8.834;2023-06-10T03:20:02;97182.47;;;11.12;89.50
72336;BME280;65062;48.446;8.834;2023-06-10T03:23:06;97181.19;;;10.95;89.13
72336;BME280;65062;48.446;8.834;2023-06-10T03:26:06;97185.84;;;10.93;90.30
72336;BME280;65062;48.446;8.834;2023-06-10T03:29:07;97191.91;;;11.00;91.16
72336;BME280;65062;48.446;8.834;2023-06-10T03:32:08;97188.25;;;11.01;90.70
72336;BME280;65062;48.446;8.834;2023-06-10T03:35:08;97190.88;;;11.01;89.60
72336;BME280;65062;48.446;8.834;2023-06-10T03:38:09;97191.28;;;10.98;90.88
72336;BME280;65062;48.446;8.834;2023-06-10T03:41:10;97193.75;;;11.06;89.71
72336;BME280;65062;48.446;8.834;2023-06-10T03:44:10;97198.78;;;11.07;88.34
72336;BME280;65062;48.446;8.834;2023-06-10T03:47:10;97208.97;;;10.96;89.38
72336;BME280;65062;48.446;8.834;2023-06-10T03:50:12;97208.38;;;10.94;89.29
72336;BME280;65062;48.446;8.834;2023-06-10T03:53:13;97212.00;;;10.93;89.74
72336;BME280;65062;48.446;8.834;2023-06-10T03:56:13;97213.63;;;11.00;90.66
72336;BME280;65062;48.446;8.834;2023-06-10T03:59:14;97210.81;;;11.02;90.11
72336;BME280;65062;48.446;8.834;2023-06-10T04:02:14;97216.44;;;10.92;91.00
72336;BME280;65062;48.446;8.834;2023-06-10T04:05:15;97212.78;;;10.87;91.47
72336;BME280;65062;48.446;8.834;2023-06-10T04:08:16;97209.97;;;10.88;91.75
72336;BME280;65062;48.446;8.834;2023-06-10T04:11:16;97219.66;;;10.94;89.84
72336;BME280;65062;48.446;8.834;2023-06-10T04:14:17;97216.44;;;10.92;90.56
72336;BME280;65062;48.446;8.834;2023-06-10T04:17:17;97214.03;;;10.97;90.37
72336;BME280;65062;48.446;8.834;2023-06-10T04:20:18;97220.47;;;10.95;90.25
72336;BME280;65062;48.446;8.834;2023-06-10T04:23:18;97214.41;;;10.94;90.09
72336;BME280;65062;48.446;8.834;2023-06-10T04:26:19;97220.56;;;11.14;88.68
72336;BME280;65062;48.446;8.834;2023-06-10T04:29:19;97222.78;;;11.17;88.52
72336;BME280;65062;48.446;8.834;2023-06-10T04:32:19;97230.06;;;11.22;89.50
72336;BME280;65062;48.446;8.834;2023-06-10T04:35:20;97231.63;;;11.16;89.54
72336;BME280;65062;48.446;8.834;2023-06-10T04:38:20;97232.44;;;11.17;89.57
72336;BME280;65062;48.446;8.834;2023-06-10T04:41:21;97238.31;;;11.25;89.36
72336;BME280;65062;48.446;8.834;2023-06-10T04:44:22;97233.75;;;11.34;88.93
72336;BME280;65062;48.446;8.834;2023-06-10T04:47:23;97233.13;;;11.32;88.01
72336;BME280;65062;48.446;8.834;2023-06-10T04:50:23;97242.63;;;11.46;89.00
72336;BME280;65062;48.446;8.834;2023-06-10T04:53:24;97241.66;;;11.53;88.13
72336;BME280;65062;48.446;8.834;2023-06-10T04:56:25;97235.22;;;11.56;87.73
72336;BME280;65062;48.446;8.834;2023-06-10T04:59:25;97240.88;;;11.59;86.97
72336;BME280;65062;48.446;8.834;2023-06-10T05:02:26;97248.53;;;11.61;88.15
72336;BME280;65062;48.446;8.834;2023-06-10T05:05:26;97245.78;;;11.69;88.44
72336;BME280;65062;48.446;8.834;2023-06-10T05:08:26;97247.78;;;11.67;87.10
72336;BME280;65062;48.446;8.834;2023-06-10T05:11:27;97243.53;;;11.72;87.32
72336;BME280;65062;48.446;8.834;2023-06-10T05:14:27;97247.81;;;11.73;87.82
72336;BME280;65062;48.446;8.834;2023-06-10T05:17:27;97247.81;;;11.80;87.41
72336;BME280;65062;48.446;8.834;2023-06-10T05:20:28;97247.63;;;11.88;87.09
72336;BME280;65062;48.446;8.834;2023-06-10T05:23:30;97247.63;;;11.94;87.85
72336;BME280;65062;48.446;8.834;2023-06-10T05:26:30;97245.84;;;12.08;86.66
72336;BME280;65062;48.446;8.834;2023-06-10T05:29:37;97249.88;;;12.17;87.75
72336;BME280;65062;48.446;8.834;2023-06-10T05:32:37;97254.31;;;12.29;87.48
72336;BME280;65062;48.446;8.834;2023-06-10T05:35:38;97247.47;;;12.35;86.33
72336;BME280;65062;48.446;8.834;2023-06-10T05:38:38;97251.31;;;12.45;86.75
72336;BME280;65062;48.446;8.834;2023-06-10T05:41:38;97245.03;;;12.59;85.94
72336;BME280;65062;48.446;8.834;2023-06-10T05:44:39;97260.75;;;12.73;85.99
72336;BME280;65062;48.446;8.834;2023-06-10T05:47:40;97255.06;;;12.89;85.77
72336;BME280;65062;48.446;8.834;2023-06-10T05:50:40;97252.84;;;13.05;84.83
72336;BME280;65062;48.446;8.834;2023-06-10T05:53:42;97250.59;;;13.15;84.37
72336;BME280;65062;48.446;8.834;2023-06-10T05:56:43;97259.44;;;13.27;83.68
72336;BME280;65062;48.446;8.834;2023-06-10T05:59:44;97257.78;;;13.39;82.91
72336;BME280;65062;48.446;8.834;2023-06-10T06:02:44;97260.75;;;13.56;81.90
72336;BME280;65062;48.446;8.834;2023-06-10T06:05:45;97257.50;;;13.60;82.54
72336;BME280;65062;48.446;8.834;2023-06-10T06:08:46;97258.63;;;13.77;81.96
72336;BME280;65062;48.446;8.834;2023-06-10T06:11:46;97260.31;;;13.96;81.91
72336;BME280;65062;48.446;8.834;2023-06-10T06:14:47;97244.56;;;14.21;82.19
72336;BME280;65062;48.446;8.834;2023-06-10T06:17:49;97250.38;;;14.29;81.89
72336;BME280;65062;48.446;8.834;2023-06-10T06:20:52;97244.13;;;14.55;80.62
72336;BME280;65062;48.446;8.834;2023-06-10T06:23:53;97246.28;;;14.64;79.38
72336;BME280;65062;48.446;8.834;2023-06-10T06:26:53;97246.34;;;14.76;78.93
72336;BME280;65062;48.446;8.834;2023-06-10T06:29:53;97250.25;;;14.92;79.45
72336;BME280;65062;48.446;8.834;2023-06-10T06:32:54;97248.66;;;15.09;78.35
72336;BME280;65062;48.446;8.834;2023-06-10T06:35:55;97251.00;;;15.35;77.52
72336;BME280;65062;48.446;8.834;2023-06-10T06:38:55;97245.22;;;15.44;77.23
72336;BME280;65062;48.446;8.834;2023-06-10T06:41:56;97254.22;;;15.55;76.23
72336;BME280;65062;48.446;8.834;2023-06-10T06:44:56;97258.31;;;15.69;77.08
72336;BME280;65062;48.446;8.834;2023-06-10T06:47:57;97261.94;;;15.86;75.02
72336;BME280;65062;48.446;8.834;2023-06-10T06:50:57;97252.22;;;15.98;74.95
72336;BME280;65062;48.446;8.834;2023-06-10T06:53:58;97257.78;;;16.19;75.02
72336;BME280;65062;48.446;8.834;2023-06-10T06:56:59;97248.72;;;16.27;75.10
72336;BME280;65062;48.446;8.834;2023-06-10T06:59:59;97254.25;;;16.37;74.67
72336;BME280;65062;48.446;8.834;2023-06-10T07:02:59;97247.78;;;16.51;74.29
72336;BME280;65062;48.446;8.834;2023-06-10T07:06:00;97254.34;;;16.83;73.40
72336;BME280;65062;48.446;8.834;2023-06-10T07:09:00;97249.72;;;16.90;73.03
72336;BME280;65062;48.446;8.834;2023-06-10T07:12:00;97248.00;;;17.07;72.39
72336;BME280;65062;48.446;8.834;2023-06-10T07:15:01;97245.31;;;17.30;72.87
72336;BME280;65062;48.446;8.834;2023-06-10T07:18:01;97248.75;;;17.54;71.73
72336;BME280;65062;48.446;8.834;2023-06-10T07:21:02;97247.66;;;17.66;70.92
72336;BME280;65062;48.446;8.834;2023-06-10T07:24:02;97243.53;;;17.87;71.12
72336;BME280;65062;48.446;8.834;2023-06-10T07:27:03;97242.81;;;18.03;70.18
72336;BME280;65062;48.446;8.834;2023-06-10T07:30:05;97236.88;;;18.12;67.64
72336;BME280;65062;48.446;8.834;2023-06-10T07:33:07;97239.78;;;18.27;67.35
72336;BME280;65062;48.446;8.834;2023-06-10T07:36:07;97238.53;;;18.46;68.20
72336;BME280;65062;48.446;8.834;2023-06-10T07:39:08;97238.84;;;18.66;68.75
72336;BME280;65062;48.446;8.834;2023-06-10T07:42:09;97231.75;;;18.89;66.72
72336;BME280;65062;48.446;8.834;2023-06-10T07:45:10;97243.91;;;19.06;65.33
72336;BME280;65062;48.446;8.834;2023-06-10T07:48:10;97235.34;;;19.59;63.21
72336;BME280;65062;48.446;8.834;2023-06-10T07:51:11;97223.88;;;19.80;61.00
72336;BME280;65062;48.446;8.834;2023-06-10T07:54:11;97235.66;;;19.89;61.45
72336;BME280;65062;48.446;8.834;2023-06-10T07:57:15;97229.25;;;20.11;60.42
72336;BME280;65062;48.446;8.834;2023-06-10T08:00:16;97215.13;;;20.32;59.76
72336;BME280;65062;48.446;8.834;2023-06-10T08:03:16;97222.88;;;20.39;59.59
72336;BME280;65062;48.446;8.834;2023-06-10T08:06:16;97223.09;;;20.64;59.36
72336;BME280;65062;48.446;8.834;2023-06-10T08:09:17;97229.53;;;21.10;58.94
72336;BME280;65062;48.446;8.834;2023-06-10T08:12:18;97226.09;;;21.14;57.05
72336;BME280;65062;48.446;8.834;2023-06-10T08:15:18;97224.03;;;21.31;58.84
72336;BME280;65062;48.446;8.834;2023-06-10T08:18:19;97229.19;;;21.53;55.61
72336;BME280;65062;48.446;8.834;2023-06-10T08:21:19;97227.03;;;21.45;56.42
72336;BME280;65062;48.446;8.834;2023-06-10T08:24:20;97224.25;;;21.76;55.68
72336;BME280;65062;48.446;8.834;2023-06-10T08:27:20;97219.72;;;21.82;55.07
72336;BME280;65062;48.446;8.834;2023-06-10T08:30:21;97220.81;;;21.91;54.69
72336;BME280;65062;48.446;8.834;2023-06-10T08:33:21;97228.59;;;22.07;53.90
72336;BME280;65062;48.446;8.834;2023-06-10T08:36:21;97220.81;;;21.96;55.21
72336;BME280;65062;48.446;8.834;2023-06-10T08:39:22;97229.63;;;22.06;54.66
72336;BME280;65062;48.446;8.834;2023-06-10T08:42:32;97228.03;;;22.10;52.89
72336;BME280;65062;48.446;8.834;2023-06-10T08:45:36;97219.53;;;22.28;54.42
72336;BME280;65062;48.446;8.834;2023-06-10T08:48:44;97228.09;;;22.45;53.64
72336;BME280;65062;48.446;8.834;2023-06-10T08:51:45;97217.16;;;22.62;52.21
72336;BME280;65062;48.446;8.834;2023-06-10T08:54:52;97219.28;;;22.70;51.28
72336;BME280;65062;48.446;8.834;2023-06-10T08:57:54;97215.28;;;22.78;51.17
72336;BME280;65062;48.446;8.834;2023-06-10T09:00:55;97212.28;;;23.09;51.87
72336;BME280;65062;48.446;8.834;2023-06-10T09:03:57;97210.91;;;23.27;50.06
72336;BME280;65062;48.446;8.834;2023-06-10T09:06:59;97215.44;;;23.36;50.45
72336;BME280;65062;48.446;8.834;2023-06-10T09:10:00;97200.19;;;23.42;49.46
72336;BME280;65062;48.446;8.834;2023-06-10T09:13:03;97201.81;;;23.38;48.69
72336;BME280;65062;48.446;8.834;2023-06-10T09:16:04;97201.00;;;23.37;48.90
72336;BME280;65062;48.446;8.834;2023-06-10T09:19:05;97204.38;;;23.63;49.65
72336;BME280;65062;48.446;8.834;2023-06-10T09:22:08;97195.25;;;23.69;48.41
72336;BME280;65062;48.446;8.834;2023-06-10T09:25:10;97204.78;;;23.80;47.71
72336;BME280;65062;48.446;8.834;2023-06-10T09:28:14;97200.19;;;23.90;47.40
72336;BME280;65062;48.446;8.834;2023-06-10T09:31:16;97203.66;;;23.96;48.22
72336;BME280;65062;48.446;8.834;2023-06-10T09:34:18;97195.06;;;24.04;47.77
72336;BME280;65062;48.446;8.834;2023-06-10T09:37:23;97200.13;;;24.05;46.48
72336;BME280;65062;48.446;8.834;2023-06-10T09:40:24;97200.72;;;23.92;46.18
72336;BME280;65062;48.446;8.834;2023-06-10T09:43:38;97196.00;;;24.23;47.75
72336;BME280;65062;48.446;8.834;2023-06-10T09:46:39;97194.25;;;24.37;45.45
72336;BME280;65062;48.446;8.834;2023-06-10T09:49:39;97193.56;;;24.60;45.41
72336;BME280;65062;48.446;8.834;2023-06-10T09:52:40;97208.41;;;24.76;44.38
72336;BME280;65062;48.446;8.834;2023-06-10T09:55:41;97193.53;;;24.94;45.25
72336;BME280;65062;48.446;8.834;2023-06-10T09:58:41;97195.00;;;25.05;43.87
72336;BME280;65062;48.446;8.834;2023-06-10T10:01:43;97197.09;;;25.08;43.08
72336;BME280;65062;48.446;8.834;2023-06-10T10:05:02;97197.31;;;25.16;44.48
72336;BME280;65062;48.446;8.834;2023-06-10T10:08:02;97191.31;;;25.24;43.00
72336;BME280;65062;48.446;8.834;2023-06-10T10:11:03;97200.50;;;25.42;43.59
72336;BME280;65062;48.446;8.834;2023-06-10T10:14:04;97189.91;;;25.32;42.15
72336;BME280;65062;48.446;8.834;2023-06-10T10:17:10;97192.97;;;25.44;43.43
72336;BME280;65062;48.446;8.834;2023-06-10T10:20:13;97200.47;;;25.65;42.74
72336;BME280;65062;48.446;8.834;2023-06-10T10:23:20;97191.94;;;25.63;42.30
72336;BME280;65062;48.446;8.834;2023-06-10T10:26:23;97196.19;;;25.64;42.61
72336;BME280;65062;48.446;8.834;2023-06-10T10:29:31;97186.75;;;25.48;42.63
72336;BME280;65062;48.446;8.834;2023-06-10T10:32:38;97204.09;;;25.93;43.15
72336;BME280;65062;48.446;8.834;2023-06-10T10:35:40;97190.50;;;25.89;40.49
72336;BME280;65062;48.446;8.834;2023-06-10T10:38:42;97198.22;;;25.72;40.22
72336;BME280;65062;48.446;8.834;2023-06-10T10:41:43;97182.13;;;25.72;42.00
72336;BME280;65062;48.446;8.834;2023-06-10T10:44:44;97192.63;;;26.11;40.68
72336;BME280;65062;48.446;8.834;2023-06-10T10:47:45;97195.38;;;26.06;40.44
72336;BME280;65062;48.446;8.834;2023-06-10T10:50:56;97177.88;;;26.59;40.01
72336;BME280;65062;48.446;8.834;2023-06-10T10:54:13;97168.91;;;26.82;39.38
72336;BME280;65062;48.446;8.834;2023-06-10T10:57:15;97168.38;;;26.67;40.49
72336;BME280;65062;48.446;8.834;2023-06-10T11:00:25;97164.34;;;26.96;37.28
72336;BME280;65062;48.446;8.834;2023-06-10T11:03:30;97172.81;;;26.90;38.70
72336;BME280;65062;48.446;8.834;2023-06-10T11:06:30;97173.91;;;27.02;37.26
72336;BME280;65062;48.446;8.834;2023-06-10T11:09:31;97170.75;;;27.27;37.78
72336;BME280;65062;48.446;8.834;2023-06-10T11:12:41;97166.78;;;27.25;35.66
72336;BME280;65062;48.446;8.834;2023-06-10T11:15:46;97169.66;;;27.28;35.66
72336;BME280;65062;48.446;8.834;2023-06-10T11:18:53;97162.34;;;27.15;36.80
72336;BME280;65062;48.446;8.834;2023-06-10T11:21:58;97161.56;;;27.15;36.10
72336;BME280;65062;48.446;8.834;2023-06-10T11:25:00;97163.28;;;27.51;36.68
72336;BME280;65062;48.446;8.834;2023-06-10T11:28:00;97166.03;;;27.87;36.03
72336;BME280;65062;48.446;8.834;2023-06-10T11:31:00;97180.22;;;28.23;34.38
72336;BME280;65062;48.446;8.834;2023-06-10T11:34:05;97160.47;;;28.72;33.69
72336;BME280;65062;48.446;8.834;2023-06-10T11:37:06;97161.34;;;29.76;33.54
72336;BME280;65062;48.446;8.834;2023-06-10T11:40:07;97162.31;;;30.22;30.84
72336;BME280;65062;48.446;8.834;2023-06-10T11:43:09;97150.94;;;29.52;31.57
72336;BME280;65062;48.446;8.834;2023-06-10T11:46:10;97153.88;;;29.64;31.47
72336;BME280;65062;48.446;8.834;2023-06-10T11:49:11;97151.00;;;30.46;30.40
72336;BME280;65062;48.446;8.834;2023-06-10T11:52:12;97144.69;;;31.92;29.63
72336;BME280;65062;48.446;8.834;2023-06-10T11:55:12;97144.22;;;32.76;26.85
72336;BME280;65062;48.446;8.834;2023-06-10T11:58:18;97138.69;;;34.60;24.84
72336;BME280;65062;48.446;8.834;2023-06-10T12:01:19;97142.25;;;35.54;22.65
72336;BME280;65062;48.446;8.834;2023-06-10T12:04:21;97143.59;;;34.15;23.38
72336;BME280;65062;48.446;8.834;2023-06-10T12:07:22;97140.78;;;34.94;22.73
72336;BME280;65062;48.446;8.834;2023-06-10T12:10:23;97136.00;;;36.64;22.01
72336;BME280;65062;48.446;8.834;2023-06-10T12:13:25;97151.59;;;39.09;19.34
72336;BME280;65062;48.446;8.834;2023-06-10T12:16:26;97144.28;;;38.83;18.87
72336;BME280;65062;48.446;8.834;2023-06-10T12:19:26;97143.66;;;37.19;19.83
72336;BME280;65062;48.446;8.834;2023-06-10T12:22:36;97145.22;;;36.56;20.92
72336;BME280;65062;48.446;8.834;2023-06-10T12:25:36;97143.53;;;36.29;21.53
72336;BME280;65062;48.446;8.834;2023-06-10T12:28:37;97133.00;;;35.58;22.03
72336;BME280;65062;48.446;8.834;2023-06-10T12:32:01;97139.63;;;37.13;21.63
72336;BME280;65062;48.446;8.834;2023-06-10T12:35:04;97135.81;;;36.54;20.36
72336;BME280;65062;48.446;8.834;2023-06-10T12:38:05;97147.16;;;34.43;23.55
72336;BME280;65062;48.446;8.834;2023-06-10T12:41:08;97140.41;;;33.85;23.93
72336;BME280;65062;48.446;8.834;2023-06-10T12:44:08;97141.94;;;33.47;24.46
72336;BME280;65062;48.446;8.834;2023-06-10T12:47:10;97146.25;;;32.79;24.81
72336;BME280;65062;48.446;8.834;2023-06-10T12:50:12;97143.81;;;32.00;27.04
72336;BME280;65062;48.446;8.834;2023-06-10T12:53:12;97135.31;;;32.43;25.71
72336;BME280;65062;48.446;8.834;2023-06-10T12:56:13;97145.34;;;33.44;25.31
72336;BME280;65062;48.446;8.834;2023-06-10T12:59:13;97132.59;;;35.10;22.52
72336;BME280;65062;48.446;8.834;2023-06-10T13:02:14;97125.19;;;37.13;19.96
72336;BME280;65062;48.446;8.834;2023-06-10T13:05:14;97113.22;;;39.49;19.12
72336;BME280;65062;48.446;8.834;2023-06-10T13:08:15;97118.94;;;41.12;16.65
72336;BME280;65062;48.446;8.834;2023-06-10T13:11:15;97108.69;;;37.54;19.67
72336;BME280;65062;48.446;8.834;2023-06-10T13:14:16;97123.22;;;33.93;23.30
72336;BME280;65062;48.446;8.834;2023-06-10T13:17:16;97126.72;;;32.08;25.64
72336;BME280;65062;48.446;8.834;2023-06-10T13:20:17;97131.34;;;31.58;26.86
72336;BME280;65062;48.446;8.834;2023-06-10T13:23:17;97120.53;;;30.28;29.19
72336;BME280;65062;48.446;8.834;2023-06-10T13:26:18;97129.06;;;29.45;30.92
72336;BME280;65062;48.446;8.834;2023-06-10T13:29:18;97120.47;;;29.43;30.96
72336;BME280;65062;48.446;8.834;2023-06-10T13:32:19;97116.53;;;29.58;30.17
72336;BME280;65062;48.446;8.834;2023-06-10T13:35:19;97114.81;;;29.96;29.93
72336;BME280;65062;48.446;8.834;2023-06-10T13:38:19;97101.72;;;31.41;27.81
72336;BME280;65062;48.446;8.834;2023-06-10T13:41:20;97097.03;;;34.56;23.70
72336;BME280;65062;48.446;8.834;2023-06-10T13:44:20;97098.34;;;37.97;20.01
72336;BME280;65062;48.446;8.834;2023-06-10T13:47:20;97091.75;;;40.61;16.02
72336;BME280;65062;48.446;8.834;2023-06-10T13:50:21;97090.94;;;39.07;17.42
72336;BME280;65062;48.446;8.834;2023-06-10T13:53:21;97082.72;;;41.73;14.91
72336;BME280;65062;48.446;8.834;2023-06-10T13:56:22;97086.75;;;42.48;14.18
72336;BME280;65062;48.446;8.834;2023-06-10T13:59:23;97081.06;;;40.18;15.86
72336;BME280;65062;48.446;8.834;2023-06-10T14:02:23;97086.78;;;37.51;18.32
72336;BME280;65062;48.446;8.834;2023-06-10T14:05:23;97079.75;;;37.50;19.43
72336;BME280;65062;48.446;8.834;2023-06-10T14:08:24;97081.41;;;37.84;18.91
72336;BME280;65062;48.446;8.834;2023-06-10T14:11:24;97074.22;;;38.72;17.85
72336;BME280;65062;48.446;8.834;2023-06-10T14:14:24;97070.25;;;38.29;18.14
72336;BME280;65062;48.446;8.834;2023-06-10T14:17:25;97079.50;;;37.10;19.22
72336;BME280;65062;48.446;8.834;2023-06-10T14:20:25;97072.72;;;36.33;19.91
72336;BME280;65062;48.446;8.834;2023-06-10T14:23:26;97068.41;;;38.07;17.89
72336;BME280;65062;48.446;8.834;2023-06-10T14:26:27;97082.00;;;40.74;15.25
72336;BME280;65062;48.446;8.834;2023-06-10T14:29:27;97061.97;;;40.53;15.92
72336;BME280;65062;48.446;8.834;2023-06-10T14:32:29;97063.06;;;40.27;15.89
72336;BME280;65062;48.446;8.834;2023-06-10T14:35:29;97063.50;;;40.36;16.36
72336;BME280;65062;48.446;8.834;2023-06-10T14:38:29;97059.22;;;39.57;16.37
72336;BME280;65062;48.446;8.834;2023-06-10T14:41:30;97062.78;;;39.03;16.94
72336;BME280;65062;48.446;8.834;2023-06-10T14:44:30;97061.41;;;38.83;16.73
72336;BME280;65062;48.446;8.834;2023-06-10T14:47:31;97068.84;;;39.94;15.99
72336;BME280;65062;48.446;8.834;2023-06-10T14:50:32;97051.75;;;40.36;15.38
72336;BME280;65062;48.446;8.834;2023-06-10T14:53:32;97048.50;;;40.13;16.01
72336;BME280;65062;48.446;8.834;2023-06-10T14:56:33;97057.28;;;40.92;15.49
72336;BME280;65062;48.446;8.834;2023-06-10T14:59:34;97045.91;;;40.76;16.15
72336;BME280;65062;48.446;8.834;2023-06-10T15:02:34;97044.75;;;39.60;16.66
72336;BME280;65062;48.446;8.834;2023-06-10T15:05:35;97045.78;;;37.21;19.88
72336;BME280;65062;48.446;8.834;2023-06-10T15:08:36;97054.41;;;34.60;21.55
72336;BME280;65062;48.446;8.834;2023-06-10T15:11:37;97049.47;;;32.68;24.50
72336;BME280;65062;48.446;8.834;2023-06-10T15:14:38;97057.38;;;31.75;25.76
72336;BME280;65062;48.446;8.834;2023-06-10T15:17:38;97052.88;;;30.34;26.77
72336;BME280;65062;48.446;8.834;2023-06-10T15:20:39;97050.22;;;30.25;27.53
72336;BME280;65062;48.446;8.834;2023-06-10T15:23:39;97045.34;;;30.94;28.07
72336;BME280;65062;48.446;8.834;2023-06-10T15:26:40;97040.53;;;33.39;23.46
72336;BME280;65062;48.446;8.834;2023-06-10T15:29:40;97035.19;;;34.38;22.13
72336;BME280;65062;48.446;8.834;2023-06-10T15:32:41;97036.56;;;35.78;20.88
72336;BME280;65062;48.446;8.834;2023-06-10T15:35:41;97040.63;;;36.26;20.44
72336;BME280;65062;48.446;8.834;2023-06-10T15:38:41;97034.97;;;36.35;19.65
72336;BME280;65062;48.446;8.834;2023-06-10T15:41:42;97038.16;;;36.59;19.49
72336;BME280;65062;48.446;8.834;2023-06-10T15:44:42;97036.38;;;37.71;18.83
72336;BME280;65062;48.446;8.834;2023-06-10T15:47:43;97030.38;;;37.62;18.94
72336;BME280;65062;48.446;8.834;2023-06-10T15:50:43;97020.00;;;37.75;18.72
72336;BME280;65062;48.446;8.834;2023-06-10T15:53:45;97029.16;;;36.17;20.71
72336;BME280;65062;48.446;8.834;2023-06-10T15:56:49;97034.97;;;35.39;23.17
72336;BME280;65062;48.446;8.834;2023-06-10T15:59:49;97029.78;;;33.82;23.64
72336;BME280;65062;48.446;8.834;2023-06-10T16:02:49;97032.75;;;32.33;24.79
72336;BME280;65062;48.446;8.834;2023-06-10T16:05:50;97039.72;;;30.23;29.16